Time;durP1;ratioP1;P1;durP2;ratioP2;P2;SDS_P1;SDS_P2;PMS_P1;PMS_P2;Temp;Humidity;BMP_temperature;BMP_pressure;BME280_temperature;BME280_humidity;BME280_pressure;Samples;Min_cycle;Max_cycle;Signal;HPM_P1;HPM_P2
2023/06/08 00:00:57;;;;;;;7.17;6.43;;;;;;;19.70;49.48;101205.88;4905585;29;20453;-85
2023/06/08 00:03:27;;;;;;;7.20;6.37;;;;;;;19.70;49.47;101209.47;4910100;29;20844;-85
2023/06/08 00:05:57;;;;;;;7.47;5.80;;;;;;;19.79;49.35;101212.56;4902017;29;20464;-85
2023/06/08 00:08:29;;;;;;;8.83;6.50;;;;;;;19.75;49.38;101212.25;4917586;29;20474;-84
2023/06/08 00:11:00;;;;;;;7.70;6.10;;;;;;;19.58;49.71;101218.88;4918056;29;20462;-84
2023/06/08 00:13:30;;;;;;;7.87;5.60;;;;;;;19.56;49.77;101210.09;4908161;29;20612;-85
2023/06/08 00:16:00;;;;;;;7.83;6.50;;;;;;;19.32;50.44;101206.66;4918953;29;20804;-84
2023/06/08 00:18:30;;;;;;;11.73;6.50;;;;;;;19.45;50.27;101204.44;4902437;29;20420;-86
2023/06/08 00:21:00;;;;;;;6.70;5.87;;;;;;;19.37;50.53;101199.34;4898431;29;20492;-85
2023/06/08 00:23:30;;;;;;;6.90;5.93;;;;;;;19.22;50.95;101204.59;4910328;29;20488;-85
2023/06/08 00:26:03;;;;;;;8.90;7.57;;;;;;;19.16;51.18;101204.81;4913900;29;20424;-85
2023/06/08 00:28:32;;;;;;;6.77;6.00;;;;;;;19.15;51.19;101195.75;4920598;29;20496;-85
2023/06/08 00:31:02;;;;;;;8.40;5.70;;;;;;;18.92;51.94;101198.69;4905443;29;20497;-85
2023/06/08 00:33:31;;;;;;;8.17;6.20;;;;;;;18.86;52.01;101205.16;4901796;29;20439;-85
2023/06/08 00:36:00;;;;;;;7.17;5.63;;;;;;;18.81;52.09;101199.56;4901395;29;20430;-84
2023/06/08 00:38:30;;;;;;;8.63;6.30;;;;;;;18.85;52.07;101196.09;4905163;29;20505;-86
2023/06/08 00:41:02;;;;;;;8.83;8.03;;;;;;;18.77;52.10;101190.19;4908473;29;20842;-84
2023/06/08 00:43:32;;;;;;;6.37;5.60;;;;;;;18.72;52.24;101192.84;4900787;29;20425;-84
2023/06/08 00:46:02;;;;;;;9.83;7.13;;;;;;;18.71;52.47;101191.19;4902727;29;20438;-83
2023/06/08 00:48:32;;;;;;;7.30;5.23;;;;;;;18.62;52.29;101191.59;4905515;29;20433;-84
2023/06/08 00:51:02;;;;;;;6.70;5.23;;;;;;;18.53;52.73;101190.34;4907922;29;20856;-85
2023/06/08 00:53:33;;;;;;;7.30;5.90;;;;;;;18.65;52.06;101187.53;4912453;29;20417;-85
2023/06/08 00:56:07;;;;;;;7.60;6.90;;;;;;;18.59;52.24;101183.84;4904843;29;20460;-85
2023/06/08 00:58:37;;;;;;;8.73;6.37;;;;;;;18.50;52.55;101192.69;4916322;29;20419;-84
2023/06/08 01:01:12;;;;;;;6.63;5.40;;;;;;;18.35;52.72;101182.31;4902848;29;20513;-85
2023/06/08 01:03:44;;;;;;;8.77;7.20;;;;;;;18.36;52.78;101183.97;4912769;29;20456;-84
2023/06/08 01:06:16;;;;;;;7.50;6.70;;;;;;;18.50;52.17;101184.47;4908013;29;20432;-84
2023/06/08 01:08:57;;;;;;;8.77;6.60;;;;;;;18.43;52.35;101179.19;4904561;29;20467;-85
2023/06/08 01:11:43;;;;;;;6.93;5.90;;;;;;;18.34;52.58;101180.66;4922668;29;20429;-84
2023/06/08 01:14:21;;;;;;;7.00;6.30;;;;;;;18.21;53.01;101186.41;4925699;29;20460;-84
2023/06/08 01:16:52;;;;;;;8.57;6.63;;;;;;;18.27;52.72;101179.97;4920012;29;20532;-85
2023/06/08 01:19:33;;;;;;;7.50;5.70;;;;;;;18.19;52.79;101178.47;4911626;29;20707;-85
2023/06/08 01:22:15;;;;;;;10.57;6.93;;;;;;;18.14;52.65;101174.81;4914210;29;20463;-84
2023/06/08 01:24:50;;;;;;;7.60;6.67;;;;;;;18.04;52.69;101185.56;4918886;29;20420;-84
2023/06/08 01:27:20;;;;;;;9.40;5.70;;;;;;;18.00;52.87;101176.19;4916335;29;20442;-84
2023/06/08 01:29:51;;;;;;;7.13;5.53;;;;;;;18.03;52.64;101172.94;4907742;29;20480;-84
2023/06/08 01:32:21;;;;;;;9.30;6.70;;;;;;;18.01;52.31;101175.09;4913293;29;21028;-85
2023/06/08 01:34:50;;;;;;;10.03;7.03;;;;;;;17.88;53.46;101181.69;4910485;29;20440;-83
2023/06/08 01:37:25;;;;;;;6.67;6.03;;;;;;;17.95;52.88;101185.13;4928470;29;20425;-83
2023/06/08 01:40:05;;;;;;;7.47;6.50;;;;;;;18.09;52.23;101175.53;4920174;29;20470;-85
2023/06/08 01:42:37;;;;;;;9.33;6.70;;;;;;;18.06;52.59;101169.69;4910327;29;20452;-86
2023/06/08 01:45:12;;;;;;;6.43;5.83;;;;;;;18.09;52.23;101161.00;4905860;29;20451;-85
2023/06/08 01:47:47;;;;;;;7.00;5.47;;;;;;;18.08;52.39;101162.09;4922337;29;20493;-85
2023/06/08 01:50:19;;;;;;;8.10;7.30;;;;;;;18.09;52.57;101161.84;4912436;29;20444;-85
2023/06/08 01:52:48;;;;;;;7.60;5.90;;;;;;;17.94;52.84;101166.19;4915825;29;20561;-84
2023/06/08 01:55:22;;;;;;;7.97;5.90;;;;;;;17.95;52.78;101170.59;4928532;29;20452;-85
2023/06/08 01:57:51;;;;;;;9.23;8.33;;;;;;;17.80;53.14;101161.00;4934498;29;20429;-85
2023/06/08 02:00:21;;;;;;;7.33;6.53;;;;;;;17.68;53.58;101165.66;4921640;29;20497;-86
2023/06/08 02:02:51;;;;;;;7.50;6.80;;;;;;;17.58;53.53;101154.47;4922049;29;20466;-86
2023/06/08 02:05:21;;;;;;;6.97;6.33;;;;;;;17.42;53.66;101149.78;4917536;29;20815;-86
2023/06/08 02:07:50;;;;;;;7.50;6.57;;;;;;;17.48;53.18;101154.28;4913714;29;20699;-86
2023/06/08 02:10:22;;;;;;;7.80;6.13;;;;;;;17.55;52.89;101156.88;4910258;29;20455;-85
2023/06/08 02:12:51;;;;;;;8.33;5.50;;;;;;;17.54;52.97;101157.94;4929571;29;20516;-85
2023/06/08 02:15:21;;;;;;;10.23;6.40;;;;;;;17.46;52.83;101158.34;4914595;29;20425;-84
2023/06/08 02:17:51;;;;;;;7.70;5.87;;;;;;;17.25;53.58;101154.31;4908951;29;20461;-85
2023/06/08 02:20:22;;;;;;;9.53;7.30;;;;;;;17.19;53.60;101158.00;4920811;29;20452;-86
2023/06/08 02:22:51;;;;;;;7.43;6.67;;;;;;;17.11;53.95;101156.47;4915521;29;20536;-86
2023/06/08 02:25:22;;;;;;;8.77;6.93;;;;;;;17.09;53.97;101155.06;4907266;29;20471;-85
2023/06/08 02:27:53;;;;;;;9.50;6.60;;;;;;;16.99;54.32;101154.81;4917637;29;20399;-85
2023/06/08 02:30:22;;;;;;;7.40;6.70;;;;;;;17.04;54.03;101158.47;4910913;29;20464;-86
2023/06/08 02:32:53;;;;;;;8.07;6.17;;;;;;;17.16;53.19;101155.75;4907215;29;20508;-85
2023/06/08 02:35:22;;;;;;;7.60;6.87;;;;;;;17.19;53.15;101152.53;4926222;29;20453;-86
2023/06/08 02:37:52;;;;;;;7.13;6.40;;;;;;;17.02;53.57;101159.81;4915879;29;20428;-86
2023/06/08 02:40:23;;;;;;;6.73;5.83;;;;;;;17.09;53.53;101163.25;4906193;29;20449;-86
2023/06/08 02:42:53;;;;;;;7.03;5.73;;;;;;;17.06;53.57;101156.34;4905362;29;20449;-85
2023/06/08 02:45:25;;;;;;;8.10;5.60;;;;;;;17.01;53.64;101158.13;4921115;29;20961;-86
2023/06/08 02:47:57;;;;;;;7.90;5.93;;;;;;;17.00;53.86;101160.03;4904452;29;21009;-86
2023/06/08 02:50:26;;;;;;;8.60;7.07;;;;;;;16.95;54.40;101154.44;4905631;29;20521;-86
2023/06/08 02:52:55;;;;;;;8.13;7.27;;;;;;;16.94;54.66;101150.06;4922293;29;20559;-86
2023/06/08 02:55:28;;;;;;;7.37;6.63;;;;;;;16.81;55.05;101153.03;4906156;29;20995;-85
2023/06/08 02:57:57;;;;;;;7.03;6.30;;;;;;;16.89;55.06;101161.69;4906260;29;20470;-85
2023/06/08 03:00:29;;;;;;;6.67;5.80;;;;;;;16.82;55.29;101160.16;4914046;29;20449;-86
2023/06/08 03:03:22;;;;;;;9.00;6.43;;;;;;;16.90;55.26;101157.91;4909100;29;20455;-86
2023/06/08 03:05:58;;;;;;;8.07;6.10;;;;;;;16.86;55.48;101162.19;4911110;29;20458;-85
2023/06/08 03:08:33;;;;;;;7.40;6.23;;;;;;;16.87;55.61;101152.91;4912269;29;20445;-85
2023/06/08 03:11:05;;;;;;;6.53;5.80;;;;;;;16.90;55.35;101151.59;4920597;29;20470;-85
2023/06/08 03:13:35;;;;;;;6.37;5.77;;;;;;;16.94;55.35;101150.88;4921495;29;20413;-84
2023/06/08 03:16:05;;;;;;;7.20;6.50;;;;;;;16.86;55.79;101156.72;4926290;29;20407;-85
2023/06/08 03:18:35;;;;;;;9.07;6.97;;;;;;;16.92;55.65;101144.84;4916821;29;20469;-86
2023/06/08 03:21:07;;;;;;;8.80;6.30;;;;;;;16.85;56.13;101155.03;4909165;29;20479;-86
2023/06/08 03:23:38;;;;;;;8.63;6.80;;;;;;;16.84;56.31;101150.66;4920172;29;21402;-86
2023/06/08 03:26:09;;;;;;;8.67;6.67;;;;;;;16.99;56.02;101154.81;4907374;29;20427;-85
2023/06/08 03:28:39;;;;;;;10.17;7.37;;;;;;;16.85;56.27;101148.75;4916074;29;20456;-85
2023/06/08 03:31:11;;;;;;;6.90;6.23;;;;;;;16.78;56.54;101154.34;4924876;29;20420;-85
2023/06/08 03:33:46;;;;;;;8.97;6.90;;;;;;;16.90;56.05;101151.59;4927678;29;20487;-85
2023/06/08 03:36:15;;;;;;;11.23;7.03;;;;;;;16.97;55.59;101151.47;4925073;29;20490;-84
2023/06/08 03:38:46;;;;;;;9.13;6.10;;;;;;;16.94;55.46;101153.63;4914017;29;20438;-86
2023/06/08 03:41:19;;;;;;;8.80;7.90;;;;;;;17.20;54.72;101151.47;4919570;29;20451;-86
2023/06/08 03:43:51;;;;;;;8.27;7.47;;;;;;;18.08;53.19;101142.91;4931412;29;20420;-86
2023/06/08 03:46:25;;;;;;;9.17;6.47;;;;;;;19.06;50.19;101150.63;4913671;29;20481;-86
2023/06/08 03:48:55;;;;;;;11.40;6.57;;;;;;;19.83;48.17;101151.41;4922588;29;20424;-86
2023/06/08 03:51:25;;;;;;;7.27;6.57;;;;;;;20.60;46.42;101144.75;4914510;29;20484;-86
2023/06/08 03:53:54;;;;;;;8.13;6.10;;;;;;;21.21;44.61;101152.38;4913957;29;20494;-86
2023/06/08 03:56:25;;;;;;;8.00;6.70;;;;;;;21.39;44.10;101153.88;4925629;29;20429;-84
2023/06/08 03:58:56;;;;;;;7.30;6.60;;;;;;;21.41;43.64;101145.31;4908844;29;20433;-84
2023/06/08 04:01:27;;;;;;;7.87;6.70;;;;;;;21.70;42.79;101154.81;4916514;29;20442;-85
2023/06/08 04:03:56;;;;;;;10.87;7.67;;;;;;;21.83;42.17;101151.56;4919015;29;20420;-86
2023/06/08 04:06:33;;;;;;;7.50;6.43;;;;;;;22.53;40.90;101153.66;4917098;29;20426;-85
2023/06/08 04:09:06;;;;;;;9.67;6.73;;;;;;;22.64;40.53;101148.13;4917516;29;20411;-83
2023/06/08 04:11:39;;;;;;;8.20;6.77;;;;;;;21.90;41.29;101154.06;4923782;29;20526;-83
2023/06/08 04:14:08;;;;;;;8.83;6.50;;;;;;;22.04;40.60;101156.06;4914913;29;20992;-83
2023/06/08 04:16:40;;;;;;;8.93;7.40;;;;;;;22.33;40.62;101144.53;4930703;29;20440;-83
2023/06/08 04:19:10;;;;;;;12.27;8.30;;;;;;;22.57;40.07;101151.16;4924573;29;20950;-84
2023/06/08 04:21:42;;;;;;;8.57;6.60;;;;;;;23.29;39.30;101152.75;4906571;29;20474;-83
2023/06/08 04:24:17;;;;;;;8.63;7.67;;;;;;;23.97;37.03;101150.28;4927873;29;20424;-84
2023/06/08 04:26:48;;;;;;;8.10;7.00;;;;;;;23.20;38.08;101152.50;4921830;29;20436;-83
2023/06/08 04:29:17;;;;;;;8.13;7.20;;;;;;;22.53;39.24;101164.69;4916423;29;20441;-84
2023/06/08 04:31:46;;;;;;;9.90;7.07;;;;;;;21.49;41.95;101156.66;4913975;29;20531;-83
2023/06/08 04:34:16;;;;;;;11.37;7.43;;;;;;;21.11;42.06;101160.53;4912723;29;20938;-84
2023/06/08 04:36:46;;;;;;;9.10;8.20;;;;;;;20.57;42.68;101157.13;4910097;29;20483;-83
2023/06/08 04:39:17;;;;;;;11.30;8.60;;;;;;;20.20;43.42;101147.94;4931475;29;20424;-83
2023/06/08 04:41:49;;;;;;;8.43;7.40;;;;;;;19.89;43.95;101152.28;4913611;29;20543;-83
2023/06/08 04:44:20;;;;;;;11.03;7.20;;;;;;;19.84;43.83;101160.47;4911247;29;20529;-83
2023/06/08 04:46:53;;;;;;;8.10;6.87;;;;;;;19.98;44.06;101156.22;4923299;29;20450;-82
2023/06/08 04:49:22;;;;;;;8.20;7.07;;;;;;;20.09;43.62;101160.72;4927398;29;20566;-83
2023/06/08 04:51:55;;;;;;;9.10;6.90;;;;;;;20.13;43.14;101156.41;4908751;29;20482;-82
2023/06/08 04:54:27;;;;;;;11.27;7.10;;;;;;;20.08;42.47;101159.09;4930345;29;20453;-82
2023/06/08 04:57:03;;;;;;;7.40;6.70;;;;;;;20.07;42.61;101151.94;4910497;29;20700;-83
2023/06/08 04:59:33;;;;;;;7.60;6.90;;;;;;;20.09;42.90;101157.97;4916681;29;20412;-82
2023/06/08 05:02:02;;;;;;;10.10;7.20;;;;;;;20.32;44.19;101152.22;4922436;29;20459;-83
2023/06/08 05:04:31;;;;;;;7.57;6.23;;;;;;;20.22;42.14;101148.50;4925148;29;20410;-83
2023/06/08 05:07:00;;;;;;;6.37;5.37;;;;;;;19.97;42.26;101157.31;4928700;29;20424;-82
2023/06/08 05:09:30;;;;;;;8.80;6.90;;;;;;;19.83;43.24;101151.41;4909079;29;20446;-84
2023/06/08 05:11:59;;;;;;;10.30;7.33;;;;;;;19.75;43.10;101162.81;4904979;29;20526;-83
2023/06/08 05:14:30;;;;;;;6.37;5.60;;;;;;;19.61;43.38;101158.78;4911680;29;20467;-84
2023/06/08 05:16:59;;;;;;;7.63;6.53;;;;;;;19.73;42.75;101161.44;4922842;29;20424;-80
2023/06/08 05:19:29;;;;;;;7.03;6.33;;;;;;;19.98;42.35;101150.75;4928317;29;20401;-83
2023/06/08 05:21:59;;;;;;;11.70;8.10;;;;;;;20.15;42.26;101156.94;4919295;29;20482;-82
2023/06/08 05:24:28;;;;;;;10.70;7.07;;;;;;;20.75;41.59;101153.97;4919358;29;20441;-84
2023/06/08 05:26:57;;;;;;;7.90;7.13;;;;;;;23.13;37.90;101149.22;4907070;29;20427;-85
2023/06/08 05:29:26;;;;;;;7.70;6.80;;;;;;;24.57;35.85;101155.44;4907225;29;20875;-84
2023/06/08 05:31:57;;;;;;;8.03;6.60;;;;;;;25.99;32.99;101153.13;4934659;23;20638;-66
2023/06/08 05:34:25;;;;;;;8.80;7.83;;;;;;;24.58;33.90;101151.56;4895793;29;20445;-65
2023/06/08 05:36:55;;;;;;;11.20;7.20;;;;;;;23.59;35.58;101155.44;4899782;29;20926;-66
2023/06/08 05:39:24;;;;;;;13.07;7.60;;;;;;;22.51;37.39;101152.28;4902239;29;20495;-67
2023/06/08 05:41:53;;;;;;;10.07;8.63;;;;;;;22.24;38.59;101154.44;4897599;29;20927;-65
2023/06/08 05:44:22;;;;;;;10.10;8.27;;;;;;;22.16;38.29;101152.22;4901250;29;20572;-68
2023/06/08 05:46:51;;;;;;;10.10;7.33;;;;;;;22.10;38.73;101149.47;4896976;29;20458;-64
2023/06/08 05:49:21;;;;;;;8.40;7.07;;;;;;;22.17;38.54;101149.22;4903049;29;20489;-67
2023/06/08 05:51:50;;;;;;;8.60;7.50;;;;;;;22.11;38.52;101147.53;4896918;29;20990;-64
2023/06/08 05:54:19;;;;;;;8.13;7.33;;;;;;;21.65;39.55;101146.53;4902427;29;20423;-66
2023/06/08 05:56:50;;;;;;;12.00;7.50;;;;;;;21.75;39.42;101152.06;4907673;29;20497;-67
2023/06/08 05:59:19;;;;;;;7.07;6.30;;;;;;;21.36;39.23;101153.56;4903036;29;20435;-68
2023/06/08 06:01:49;;;;;;;8.43;6.77;;;;;;;21.25;39.31;101155.44;4914884;29;20509;-67
2023/06/08 06:04:18;;;;;;;10.90;7.67;;;;;;;21.36;39.84;101159.88;4901388;29;20934;-68
2023/06/08 06:07:06;;;;;;;8.30;6.13;;;;;;;21.56;39.82;101153.66;4898267;29;20469;-65
2023/06/08 06:09:36;;;;;;;7.70;6.40;;;;;;;21.90;38.94;101152.13;4897126;29;21024;-66
2023/06/08 06:12:07;;;;;;;8.10;6.67;;;;;;;22.12;38.23;101151.13;4898682;29;20510;-65
2023/06/08 06:14:41;;;;;;;7.93;6.57;;;;;;;22.10;38.38;101156.91;4896677;29;20434;-65
2023/06/08 06:17:11;;;;;;;7.40;6.63;;;;;;;22.11;38.26;101155.81;4894836;29;20920;-65
2023/06/08 06:19:40;;;;;;;8.00;7.17;;;;;;;22.21;38.07;101160.50;4896802;29;20439;-66
2023/06/08 06:22:11;;;;;;;8.00;7.03;;;;;;;22.46;37.92;101152.28;4895389;29;20411;-67
2023/06/08 06:24:40;;;;;;;8.10;6.20;;;;;;;22.84;37.69;101154.50;4896309;29;20789;-66
2023/06/08 06:27:11;;;;;;;12.50;7.67;;;;;;;23.32;36.49;101158.56;4900877;29;20489;-67
2023/06/08 06:29:39;;;;;;;12.20;7.87;;;;;;;23.69;36.29;101152.66;4896670;29;20405;-68
2023/06/08 06:32:09;;;;;;;10.03;7.90;;;;;;;23.70;36.50;101159.00;4895634;29;20932;-67
2023/06/08 06:34:39;;;;;;;7.07;6.13;;;;;;;23.67;36.02;101154.84;4894004;29;20465;-68
2023/06/08 06:37:09;;;;;;;10.03;7.00;;;;;;;23.61;36.27;101158.78;4896675;29;20677;-66
2023/06/08 06:39:38;;;;;;;6.43;5.73;;;;;;;23.50;35.73;101159.91;4895522;29;20993;-66
2023/06/08 06:42:10;;;;;;;8.97;6.87;;;;;;;23.53;36.13;101162.09;4912062;29;20503;-66
2023/06/08 06:44:45;;;;;;;7.00;6.10;;;;;;;23.77;35.54;101168.63;4898327;29;20830;-64
2023/06/08 06:47:14;;;;;;;9.37;5.90;;;;;;;24.02;34.94;101164.91;4892579;29;20818;-64
2023/06/08 06:49:42;;;;;;;7.83;6.07;;;;;;;24.51;34.19;101167.66;4904912;29;20451;-65
2023/06/08 06:52:13;;;;;;;10.77;5.70;;;;;;;24.65;33.60;101157.59;4899244;29;20528;-63
2023/06/08 06:54:42;;;;;;;7.50;6.30;;;;;;;24.76;33.60;101163.03;4892863;29;20844;-63
2023/06/08 06:57:11;;;;;;;10.13;6.50;;;;;;;24.63;33.24;101159.84;4899539;29;20764;-67
2023/06/08 06:59:40;;;;;;;10.13;6.37;;;;;;;24.59;33.51;101169.81;4894270;29;20455;-65
2023/06/08 07:02:09;;;;;;;11.90;6.63;;;;;;;24.41;33.04;101170.50;4896825;29;20438;-68
2023/06/08 07:04:40;;;;;;;9.80;6.60;;;;;;;24.08;33.69;101168.47;4895855;29;20537;-68
2023/06/08 07:07:09;;;;;;;14.10;6.80;;;;;;;23.98;34.20;101174.06;4899124;29;20470;-68
2023/06/08 07:09:40;;;;;;;8.47;6.83;;;;;;;23.96;34.05;101165.25;4898848;29;20416;-67
2023/06/08 07:12:09;;;;;;;9.73;7.77;;;;;;;23.96;34.31;101170.78;4903511;29;20459;-65
2023/06/08 07:14:44;;;;;;;6.90;6.17;;;;;;;23.99;34.64;101170.19;4899964;29;20433;-66
2023/06/08 07:17:13;;;;;;;6.87;5.10;;;;;;;23.93;34.47;101160.25;4898776;29;20764;-68
2023/06/08 07:19:45;;;;;;;9.33;7.07;;;;;;;23.93;34.62;101166.63;4897338;29;20424;-64
2023/06/08 07:22:15;;;;;;;7.57;6.23;;;;;;;24.33;34.68;101171.13;4893839;29;20484;-65
2023/06/08 07:25:02;;;;;;;8.40;6.23;;;;;;;24.81;34.41;101165.75;4902666;29;20452;-66
2023/06/08 07:27:51;;;;;;;10.07;5.90;;;;;;;24.60;34.97;101163.16;4892313;29;20940;-66
2023/06/08 07:30:20;;;;;;;8.63;5.60;;;;;;;24.91;35.04;101152.69;4893215;29;20437;-67
2023/06/08 07:32:49;;;;;;;17.80;7.43;;;;;;;25.10;34.29;101159.16;4893784;29;20961;-64
2023/06/08 07:35:18;;;;;;;7.70;6.63;;;;;;;24.94;34.43;101165.09;4897709;29;20464;-66
2023/06/08 07:37:48;;;;;;;6.93;5.63;;;;;;;24.95;34.74;101161.22;4899606;29;20441;-67
2023/06/08 07:40:18;;;;;;;8.93;6.67;;;;;;;25.01;34.70;101160.06;4896545;29;20429;-67
2023/06/08 07:42:48;;;;;;;7.27;6.40;;;;;;;24.98;34.81;101155.13;4897943;29;20487;-71
2023/06/08 07:45:17;;;;;;;8.33;6.37;;;;;;;25.00;34.85;101155.66;4893884;29;20481;-67
2023/06/08 07:47:46;;;;;;;8.77;7.07;;;;;;;25.23;35.06;101151.25;4892065;29;20885;-66
2023/06/08 07:50:15;;;;;;;6.90;6.20;;;;;;;25.47;34.95;101158.44;4893739;29;20447;-65
2023/06/08 07:52:44;;;;;;;7.63;6.07;;;;;;;25.29;34.65;101150.91;4893900;29;20474;-65
2023/06/08 07:55:14;;;;;;;8.57;5.67;;;;;;;25.23;34.41;101163.16;4894598;29;20443;-67
2023/06/08 07:57:45;;;;;;;10.53;6.47;;;;;;;25.19;34.06;101162.09;4893427;29;20473;-65
2023/06/08 08:00:16;;;;;;;8.20;6.07;;;;;;;25.23;33.96;101160.38;4894721;29;20950;-66
2023/06/08 08:02:45;;;;;;;7.40;6.27;;;;;;;25.26;34.20;101151.50;4894148;29;20410;-66
2023/06/08 08:05:14;;;;;;;10.07;5.57;;;;;;;25.51;34.07;101153.16;4893683;29;20438;-67
2023/06/08 08:07:43;;;;;;;6.27;5.67;;;;;;;25.71;33.96;101146.53;4892861;29;20978;-64
2023/06/08 08:10:12;;;;;;;8.10;6.33;;;;;;;25.83;33.62;101158.03;4894580;29;20534;-67
2023/06/08 08:12:44;;;;;;;8.23;6.47;;;;;;;25.94;33.27;101149.28;4896544;29;20498;-64
2023/06/08 08:15:12;;;;;;;5.93;5.07;;;;;;;25.75;32.99;101148.44;4892927;29;20930;-65
2023/06/08 08:17:41;;;;;;;7.07;6.10;;;;;;;25.84;33.08;101148.59;4892573;29;20441;-64
2023/06/08 08:20:11;;;;;;;8.20;5.90;;;;;;;25.66;34.03;101154.94;4895725;29;20438;-67
2023/06/08 08:22:40;;;;;;;6.63;5.80;;;;;;;25.85;33.93;101155.81;4893022;29;20861;-65
2023/06/08 08:25:10;;;;;;;6.40;5.80;;;;;;;26.03;33.46;101143.91;4894864;29;20438;-69
2023/06/08 08:27:39;;;;;;;7.73;6.30;;;;;;;26.14;32.94;101150.94;4897796;29;20925;-65
2023/06/08 08:30:11;;;;;;;8.27;6.47;;;;;;;26.20;32.93;101148.91;4910887;29;20457;-65
2023/06/08 08:32:40;;;;;;;7.20;5.60;;;;;;;26.35;32.82;101154.25;4893017;29;20489;-65
2023/06/08 08:35:10;;;;;;;8.40;5.30;;;;;;;26.35;32.50;101146.75;4899752;29;20414;-67
2023/06/08 08:37:40;;;;;;;6.90;6.30;;;;;;;26.46;31.92;101150.22;4895172;29;20920;-64
2023/06/08 08:40:11;;;;;;;8.00;5.90;;;;;;;26.39;31.82;101146.97;4896341;29;20487;-66
2023/06/08 08:42:45;;;;;;;7.63;6.93;;;;;;;26.51;32.01;101154.84;4895456;29;20439;-66
2023/06/08 08:45:20;;;;;;;7.00;5.70;;;;;;;26.49;32.07;101140.44;4892650;29;20783;-66
2023/06/08 08:47:53;;;;;;;7.43;6.77;;;;;;;26.74;31.92;101145.56;4894920;29;20506;-67
2023/06/08 08:50:23;;;;;;;9.63;7.07;;;;;;;26.92;31.43;101147.50;4892129;29;20438;-67
2023/06/08 08:52:56;;;;;;;6.40;5.80;;;;;;;27.01;31.76;101148.47;4895631;29;20518;-65
2023/06/08 08:55:28;;;;;;;10.30;7.13;;;;;;;27.17;31.43;101149.81;4896545;29;20892;-65
2023/06/08 08:58:01;;;;;;;6.63;5.87;;;;;;;27.53;31.34;101133.28;4893744;29;20448;-68
2023/06/08 09:00:33;;;;;;;8.40;6.50;;;;;;;27.67;30.80;101138.81;4890019;29;21021;-67
2023/06/08 09:03:02;;;;;;;6.63;5.93;;;;;;;27.87;30.45;101140.34;4893215;29;20435;-64
2023/06/08 09:05:31;;;;;;;10.40;5.53;;;;;;;27.90;30.40;101136.94;4894652;29;20965;-67
2023/06/08 09:08:00;;;;;;;6.10;5.60;;;;;;;28.00;30.20;101137.53;4893814;29;20442;-66
2023/06/08 09:10:29;;;;;;;7.50;6.80;;;;;;;28.04;30.28;101132.97;4888999;29;20413;-67
2023/06/08 09:12:58;;;;;;;8.47;6.40;;;;;;;28.12;30.03;101128.69;4895274;29;20477;-66
2023/06/08 09:15:30;;;;;;;6.60;5.90;;;;;;;28.29;29.97;101125.22;4891808;29;20518;-67
2023/06/08 09:18:15;;;;;;;7.07;6.40;;;;;;;28.53;29.20;101125.72;4901274;29;20435;-65
2023/06/08 09:20:45;;;;;;;6.47;5.60;;;;;;;27.96;29.60;101141.25;4899725;29;20434;-64
2023/06/08 09:23:20;;;;;;;6.00;5.43;;;;;;;27.74;29.91;101133.66;4899114;29;20430;-67
2023/06/08 09:25:51;;;;;;;6.80;5.63;;;;;;;27.72;30.07;101130.38;4896061;29;20466;-64
2023/06/08 09:28:25;;;;;;;6.87;6.03;;;;;;;27.82;29.96;101124.59;4893877;29;20442;-67
2023/06/08 09:30:56;;;;;;;6.63;5.93;;;;;;;27.89;29.64;101133.31;4895841;29;20438;-65
2023/06/08 09:33:29;;;;;;;6.60;5.97;;;;;;;27.84;30.09;101127.88;4898579;29;20996;-67
2023/06/08 09:36:15;;;;;;;8.03;6.07;;;;;;;27.97;29.89;101131.78;4895005;29;20490;-66
2023/06/08 09:38:46;;;;;;;6.87;6.17;;;;;;;28.29;29.40;101125.22;4894321;29;20438;-66
2023/06/08 09:41:17;;;;;;;7.50;6.20;;;;;;;28.55;28.81;101117.06;4901065;29;20434;-68
2023/06/08 09:43:47;;;;;;;6.70;6.00;;;;;;;28.39;29.12;101120.22;4897854;29;20437;-66
2023/06/08 09:46:34;;;;;;;6.93;6.27;;;;;;;28.64;29.33;101117.94;4897335;29;20466;-68
2023/06/08 09:49:07;;;;;;;14.23;6.03;;;;;;;28.67;29.19;101114.50;4896665;29;20409;-67
2023/06/08 09:51:37;;;;;;;7.00;5.77;;;;;;;29.22;29.14;101117.78;4896336;29;21048;-67
2023/06/08 09:54:07;;;;;;;9.37;6.63;;;;;;;29.34;28.35;101118.00;4896210;29;20470;-68
2023/06/08 09:56:39;;;;;;;8.50;6.77;;;;;;;29.18;28.40;101114.00;4893694;29;20514;-67
2023/06/08 09:59:14;;;;;;;7.53;5.77;;;;;;;29.31;28.56;101111.13;4892851;29;20844;-65
2023/06/08 10:01:48;;;;;;;8.57;6.47;;;;;;;29.40;28.83;101113.94;4895947;29;20885;-65
2023/06/08 10:04:24;;;;;;;7.50;6.20;;;;;;;29.25;28.29;101117.13;4895704;29;20825;-66
2023/06/08 10:07:02;;;;;;;8.20;6.50;;;;;;;29.22;28.49;101101.88;4894743;29;20463;-67
2023/06/08 10:09:35;;;;;;;7.03;6.43;;;;;;;28.64;28.82;101096.47;4895284;29;20434;-67
2023/06/08 10:12:06;;;;;;;6.80;6.13;;;;;;;28.73;29.39;101104.91;4892020;29;20442;-68
2023/06/08 10:14:36;;;;;;;6.40;5.90;;;;;;;28.94;29.16;101098.50;4896003;29;20501;-66
2023/06/08 10:17:06;;;;;;;7.77;6.43;;;;;;;28.84;29.94;101090.41;4894093;29;20510;-67
2023/06/08 10:19:38;;;;;;;8.47;6.53;;;;;;;29.18;29.74;101095.31;4895552;29;20471;-67
2023/06/08 10:22:07;;;;;;;6.23;5.73;;;;;;;29.08;29.22;101094.78;4893444;29;20451;-64
2023/06/08 10:24:37;;;;;;;11.53;6.57;;;;;;;29.29;28.88;101084.69;4893043;29;20474;-66
2023/06/08 10:27:10;;;;;;;6.87;6.03;;;;;;;29.27;28.69;101084.19;4895148;29;20455;-67
2023/06/08 10:29:39;;;;;;;13.43;7.17;;;;;;;29.11;29.41;101082.97;4892719;29;20922;-67
2023/06/08 10:32:11;;;;;;;9.40;7.27;;;;;;;29.30;29.12;101091.91;4892683;29;20517;-66
2023/06/08 10:34:42;;;;;;;6.90;6.30;;;;;;;29.32;29.20;101095.22;4900074;29;20459;-65
2023/06/08 10:37:28;;;;;;;8.33;6.07;;;;;;;29.43;29.08;101090.19;4894079;29;20470;-65
2023/06/08 10:40:00;;;;;;;7.53;6.17;;;;;;;29.79;28.69;101083.19;4893834;29;20535;-66
2023/06/08 10:42:29;;;;;;;7.93;6.37;;;;;;;29.76;28.58;101089.44;4896463;29;20466;-65
2023/06/08 10:44:58;;;;;;;8.90;6.60;;;;;;;29.40;28.89;101080.47;4892560;29;20437;-67
2023/06/08 10:47:28;;;;;;;7.33;6.47;;;;;;;29.86;29.08;101076.31;4896548;29;21657;-65
2023/06/08 10:50:01;;;;;;;14.43;6.90;;;;;;;29.77;28.73;101076.31;4895723;29;20438;-65
2023/06/08 10:52:40;;;;;;;8.97;6.33;;;;;;;30.10;28.54;101076.69;4895342;29;20441;-67
2023/06/08 10:55:12;;;;;;;8.90;6.27;;;;;;;29.94;28.59;101067.97;4898729;29;20564;-66
2023/06/08 10:57:44;;;;;;;7.33;6.73;;;;;;;30.27;28.22;101073.88;4894916;29;20434;-63
2023/06/08 11:00:43;;;;;;;7.23;5.83;;;;;;;30.15;27.99;101070.94;4896723;29;20427;-67
2023/06/08 11:03:16;;;;;;;7.93;6.17;;;;;;;29.88;28.41;101074.00;4870788;29;20447;-66
2023/06/08 11:05:52;;;;;;;6.93;6.33;;;;;;;29.91;28.40;101063.06;4894363;29;20459;-65
2023/06/08 11:08:22;;;;;;;6.63;5.03;;;;;;;29.71;27.98;101064.47;4894904;29;20434;-66
2023/06/08 11:10:55;;;;;;;6.83;6.13;;;;;;;30.32;27.73;101062.53;4894036;29;20589;-67
2023/06/08 11:13:25;;;;;;;7.10;5.53;;;;;;;30.45;27.44;101061.50;4898837;29;20450;-67
2023/06/08 11:15:54;;;;;;;7.27;6.40;;;;;;;29.92;27.57;101061.09;4895213;29;20454;-67
2023/06/08 11:18:24;;;;;;;6.37;5.87;;;;;;;30.54;27.10;101054.00;4896222;29;20954;-66
2023/06/08 11:20:58;;;;;;;7.20;6.07;;;;;;;30.99;26.22;101053.47;4896544;29;20537;-68
2023/06/08 11:23:32;;;;;;;6.93;6.30;;;;;;;30.93;26.49;101049.25;4893682;29;21083;-66
2023/06/08 11:26:02;;;;;;;7.30;5.80;;;;;;;30.57;27.02;101053.31;4894579;29;20847;-67
2023/06/08 11:28:31;;;;;;;6.83;6.13;;;;;;;30.19;27.83;101052.38;4894206;29;20567;-67
2023/06/08 11:31:06;;;;;;;7.33;5.97;;;;;;;29.86;27.83;101045.63;4893834;29;20434;-65
2023/06/08 11:33:35;;;;;;;7.60;5.93;;;;;;;29.43;28.22;101045.56;5010634;23;20505;-68
2023/06/08 11:36:06;;;;;;;6.83;6.23;;;;;;;29.63;28.62;101040.19;4888319;29;20896;-69
2023/06/08 11:38:36;;;;;;;7.33;5.83;;;;;;;29.66;28.26;101033.97;4889491;29;20439;-68
2023/06/08 11:41:05;;;;;;;8.23;6.43;;;;;;;29.83;28.02;101038.72;4889690;29;20649;-69
2023/06/08 11:43:34;;;;;;;7.97;6.50;;;;;;;29.80;27.26;101033.81;4877869;29;20444;-68